Portada
METAR-TAF:

METAR-TAF

Aeropuertos :

Aeropuerto de Verona-Villafranca

Verona, Italia

latitud: 45-23N, longitud: 010-52E, altitud: 67 m

Observación

El informe se hizo hace 19 minutos, a las 22:20 UTC
Viento 1 kt del este-sureste
Temperatura 2°C
Humedad 93%
Presión 1022 hPa
Visibilidad: 6000 m

METAR: LIPX 302220Z AUTO 12001KT 6000 BKN041/// 02/01 Q1022

Hora: 23:39 (22:39 UTC)

Pronóstico

El informe se hizo hace 2 horas y 39 minutos, a las 20:00 UTC
Pronóstico válido del 30 a las 21 UTC al 01 a las 06 UTC
Viento 5 kt con dirección variable
Visibilidad 10 km o más
Nubes dispersas a una altura de 3000 ft
Temporalmente
del 30 a las 22 UTC al 01 a las 06 UTC
Visibilidad: 4000 m
neblina

TAF: LIPX 302000Z 3021/0106 VRB05KT 9999 SCT030 TEMPO 3022/0106 4000 BR

Observaciones y pronósticos meteorológicos de más de 4000 aeropuertos (mensajes METAR y TAF).

Los puntos amarillos y rojos representan las estaciones disponibles.

Ponga el ratón en el punto deseado para ver el nombre de la estación.

Haga clic para ver las observaciones y los pronósticos meteorológicos.

Para cambiar el mapa : haga clic en los botones verdes con una cruz de color negro para hacer un zoom, en el botón verde con un guión para alejar o en las flechas verdes para mapas adyacentes.


METAR-TAF: